Flight Track Log - Related Links

Times and Time Zones

All times are in EDT time to prevent confusion due to time zone crossing. See the N2115B flight status page for this flight to view local times or setup timezone preferences in your user account.

Time Position Orientation Groundspeed Altitude Reporting Facility
EDT Latitude Longitude Course Direction KTS MPH feet Rate Location/Type
Sun 04:11:19 PM 42.1500 -87.9000 37° Northeast 105 121 1,300  Level Chicago TRACON
Sun 04:12:19 PM 42.1667 -87.8833 37° Northeast 111 128 1,900 536 Climbing Chicago TRACON
Sun 04:13:11 PM 42.1797 -87.8511 61° Northeast 107 123 2,300 526 Climbing Chicago Center
Sun 04:14:13 PM 42.1889 -87.8094 73° East 120 138 2,900 242 Climbing Chicago Center
Sun 04:15:15 PM 42.1881 -87.7617 91° East 125 144 2,800  Descending Chicago Center
Sun 04:16:17 PM 42.1964 -87.7056 79° East 129 148 2,900 48 Climbing Chicago Center
Sun 04:17:19 PM 42.1997 -87.6586 85° East 127 146 2,900  Level Chicago Center
Sun 04:18:21 PM 42.1856 -87.6161 114° Southeast 126 145 2,900 48 Level Chicago Center
Sun 04:19:23 PM 42.1669 -87.5767 122° Southeast 125 144 3,000 290 Climbing Chicago Center
Sun 04:20:25 PM 42.1494 -87.5375 121° Southeast 125 144 3,500 629 Climbing Chicago Center
Sun 04:21:27 PM 42.1442 -87.4847 98° East 131 151 4,300 726 Climbing Chicago Center
Sun 04:22:29 PM 42.1433 -87.4439 92° East 120 138 5,000 629 Climbing Chicago Center
Sun 04:23:31 PM 42.1386 -87.4014 99° East 115 132 5,600 484 Climbing Chicago Center
Sun 04:24:33 PM 42.1356 -87.3569 95° East 119 137 6,000 192 Climbing Chicago Center
Sun 04:25:36 PM 42.1317 -87.3089 96° East 128 147 6,000  Level Chicago Center
Sun 04:26:38 PM 42.1275 -87.2475 95° East 137 158 6,000  Level Chicago Center
Sun 04:27:40 PM 42.1264 -87.1942 92° East 141 162 6,000  Level Chicago Center
Sun 04:28:42 PM 42.1306 -87.1428 84° East 140 161 6,000  Level Chicago Center
Sun 04:29:44 PM 42.1344 -87.0908 84° East 140 161 6,000 48 Level Chicago Center
Sun 04:30:46 PM 42.1353 -87.0406 89° East 140 161 6,100 97 Climbing Chicago Center
Sun 04:31:48 PM 42.1342 -86.9767 91° East 143 165 6,200 194 Climbing Chicago Center
Sun 04:32:50 PM 42.1339 -86.9261 90° East 136 157 6,500 290 Climbing Chicago Center
Sun 04:33:52 PM 42.1325 -86.8753 92° East 137 158 6,800 290 Climbing Chicago Center
Sun 04:34:54 PM 42.1311 -86.8236 92° East 139 160 7,100 97 Climbing Chicago Center
Sun 04:35:56 PM 42.1342 -86.7694 86° East 143 165 7,000 -48 Descending Chicago Center
Sun 04:36:58 PM 42.1356 -86.7206 88° East 137 158 7,000  Level Chicago Center
Sun 04:38:00 PM 42.1367 -86.6597 89° East 137 158 7,000  Level Chicago Center
Sun 04:39:02 PM 42.1358 -86.6078 91° East 139 160 7,000  Level Chicago Center
Sun 04:40:05 PM 42.1347 -86.5561 92° East 138 159 7,000  Level Chicago Center
Sun 04:41:07 PM 42.1364 -86.5072 87° East 138 159 7,000  Level Chicago Center
Sun 04:42:09 PM 42.1464 -86.4558 75° East 136 157 7,000  Level Chicago Center
Sun 04:43:11 PM 42.1567 -86.4072 74° East 135 155 7,000  Level Chicago Center
Sun 04:44:13 PM 42.1708 -86.3472 72° East 139 160 7,000  Level Chicago Center
Sun 04:45:15 PM 42.1825 -86.2986 72° East 138 159 7,000  Level Chicago Center
Sun 04:46:17 PM 42.1947 -86.2481 72° East 140 161 7,000  Level Chicago Center
Sun 04:47:19 PM 42.2042 -86.1978 76° East 139 160 7,000 48 Level Chicago Center
Sun 04:48:21 PM 42.2114 -86.1469 79° East 139 160 7,100 48 Climbing Chicago Center
Sun 04:49:23 PM 42.2206 -86.0972 76° East 136 157 7,100  Level Chicago Center
Sun 04:50:25 PM 42.2344 -86.0383 72° East 137 158 7,100 -48 Level Chicago Center
Sun 04:51:27 PM 42.2453 -85.9900 73° East 136 157 7,000 -48 Descending Chicago Center
Sun 04:52:29 PM 42.2558 -85.9389 74° East 139 160 7,000  Level Chicago Center
Sun 04:53:31 PM 42.2669 -85.8872 74° East 142 163 7,000 48 Level Chicago Center
Sun 04:54:33 PM 42.2772 -85.8361 75° East 141 162 7,100  Climbing Chicago Center
Sun 04:55:35 PM 42.2872 -85.7781 77° East 143 165 7,000 -48 Descending Chicago Center
Sun 04:56:38 PM 42.2975 -85.7283 74° East 141 162 7,000  Level Chicago Center
Sun 04:57:40 PM 42.3067 -85.6756 77° East 143 165 7,000  Level Chicago Center
Sun 04:58:42 PM 42.3156 -85.6239 77° East 143 165 7,000  Level Chicago Center
Sun 04:59:45 PM 42.3278 -85.5611 75° East 144 166 7,000  Level Chicago Center
Sun 05:00:47 PM 42.3378 -85.5097 75° East 144 166 7,000 -48 Level Chicago Center
Sun 05:01:49 PM 42.3469 -85.4586 76° East 142 163 6,900 -48 Descending Chicago Center
Sun 05:02:51 PM 42.3564 -85.4078 76° East 141 162 6,900  Level Chicago Center
Sun 05:03:53 PM 42.3686 -85.3575 72° East 141 162 6,900  Level Chicago Center
Sun 05:04:55 PM 42.3814 -85.2964 74° East 141 162 6,900  Level Chicago Center
Sun 05:05:57 PM 42.3925 -85.2458 73° East 141 162 6,900  Level Chicago Center
Sun 05:06:59 PM 42.4039 -85.1936 74° East 143 165 6,900  Level Chicago Center
Sun 05:08:01 PM 42.4150 -85.1428 73° East 142 163 6,900  Level Chicago Center
Sun 05:09:03 PM 42.4267 -85.0900 73° East 145 167 6,900  Level Chicago Center
Sun 05:10:05 PM 42.4344 -85.0375 79° East 144 166 6,900  Level Chicago Center
Sun 05:11:07 PM 42.4444 -84.9725 78° East 145 167 6,900 48 Level Chicago Center
Sun 05:12:09 PM 42.4536 -84.9181 77° East 149 171 7,000 48 Climbing Chicago Center
Sun 05:13:11 PM 42.4636 -84.8642 76° East 147 169 7,000  Level Chicago Center
Sun 05:14:13 PM 42.4742 -84.8122 75° East 145 167 7,000  Level Chicago Center
Sun 05:15:15 PM 42.4850 -84.7572 75° East 149 171 7,000 -48 Level Chicago Center
Sun 05:16:17 PM 42.5108 -84.6997 59° Northeast 150 173 6,900 -194 Descending Chicago Center
Sun 05:17:19 PM 42.5364 -84.6481 56° Northeast 160 184 6,600 -435 Descending Chicago Center
Sun 05:18:21 PM 42.5617 -84.5956 57° Northeast 166 191 6,000 -677 Descending Chicago Center
Sun 05:19:23 PM 42.5872 -84.5425 57° Northeast 167 192 5,200 -677 Descending Chicago Center
Sun 05:20:25 PM 42.6117 -84.4894 58° Northeast 167 192 4,600 -629 Descending Chicago Center
Sun 05:21:27 PM 42.6361 -84.4394 56° Northeast 162 186 3,900 -677 Descending Chicago Center

Login

Don't have an account? Register now (free) for customized features, flight alerts, and more!